sensor_id;sensor_type;location;lat;lon;timestamp;P1;durP1;ratioP1;P2;durP2;ratioP2
76051;SDS011;64751;48.708;9.710;2023-02-28T00:01:08;1.88;;;1.45;;
76051;SDS011;64751;48.708;9.710;2023-02-28T00:03:35;1.55;;;1.25;;
76051;SDS011;64751;48.708;9.710;2023-02-28T00:06:03;2.22;;;1.23;;
76051;SDS011;64751;48.708;9.710;2023-02-28T00:08:33;1.55;;;1.30;;
76051;SDS011;64751;48.708;9.710;2023-02-28T00:11:01;1.60;;;1.30;;
76051;SDS011;64751;48.708;9.710;2023-02-28T00:13:29;1.85;;;1.30;;
76051;SDS011;64751;48.708;9.710;2023-02-28T00:16:00;2.70;;;1.48;;
76051;SDS011;64751;48.708;9.710;2023-02-28T00:18:29;1.38;;;1.08;;
76051;SDS011;64751;48.708;9.710;2023-02-28T00:20:57;2.00;;;1.20;;
76051;SDS011;64751;48.708;9.710;2023-02-28T00:23:25;1.70;;;1.17;;
76051;SDS011;64751;48.708;9.710;2023-02-28T00:25:54;1.60;;;1.20;;
76051;SDS011;64751;48.708;9.710;2023-02-28T00:28:22;1.67;;;1.50;;
76051;SDS011;64751;48.708;9.710;2023-02-28T00:30:50;1.73;;;1.13;;
76051;SDS011;64751;48.708;9.710;2023-02-28T00:33:18;1.75;;;1.33;;
76051;SDS011;64751;48.708;9.710;2023-02-28T00:35:47;1.30;;;1.10;;
76051;SDS011;64751;48.708;9.710;2023-02-28T00:38:14;1.33;;;1.13;;
76051;SDS011;64751;48.708;9.710;2023-02-28T00:40:42;1.33;;;1.05;;
76051;SDS011;64751;48.708;9.710;2023-02-28T00:43:12;1.75;;;1.13;;
76051;SDS011;64751;48.708;9.710;2023-02-28T00:45:39;2.10;;;1.35;;
76051;SDS011;64751;48.708;9.710;2023-02-28T00:48:07;1.70;;;1.20;;
76051;SDS011;64751;48.708;9.710;2023-02-28T00:50:34;1.42;;;1.20;;
76051;SDS011;64751;48.708;9.710;2023-02-28T00:53:02;1.35;;;0.90;;
76051;SDS011;64751;48.708;9.710;2023-02-28T00:55:29;1.70;;;1.27;;
76051;SDS011;64751;48.708;9.710;2023-02-28T00:57:57;1.33;;;1.23;;
76051;SDS011;64751;48.708;9.710;2023-02-28T01:00:26;1.65;;;1.30;;
76051;SDS011;64751;48.708;9.710;2023-02-28T01:02:53;1.30;;;1.10;;
76051;SDS011;64751;48.708;9.710;2023-02-28T01:05:22;1.67;;;1.23;;
76051;SDS011;64751;48.708;9.710;2023-02-28T01:07:49;1.50;;;1.10;;
76051;SDS011;64751;48.708;9.710;2023-02-28T01:10:17;1.88;;;1.45;;
76051;SDS011;64751;48.708;9.710;2023-02-28T01:12:46;2.83;;;1.20;;
76051;SDS011;64751;48.708;9.710;2023-02-28T01:15:15;1.40;;;1.10;;
76051;SDS011;64751;48.708;9.710;2023-02-28T01:17:46;1.95;;;1.42;;
76051;SDS011;64751;48.708;9.710;2023-02-28T01:20:13;2.33;;;1.17;;
76051;SDS011;64751;48.708;9.710;2023-02-28T01:22:41;2.65;;;1.40;;
76051;SDS011;64751;48.708;9.710;2023-02-28T01:25:08;1.83;;;1.23;;
76051;SDS011;64751;48.708;9.710;2023-02-28T01:27:36;2.42;;;1.65;;
76051;SDS011;64751;48.708;9.710;2023-02-28T01:30:05;1.42;;;1.15;;
76051;SDS011;64751;48.708;9.710;2023-02-28T01:32:35;2.67;;;1.40;;
76051;SDS011;64751;48.708;9.710;2023-02-28T01:35:05;1.30;;;1.10;;
76051;SDS011;64751;48.708;9.710;2023-02-28T01:37:32;2.00;;;1.40;;
76051;SDS011;64751;48.708;9.710;2023-02-28T01:40:00;2.70;;;1.38;;
76051;SDS011;64751;48.708;9.710;2023-02-28T01:42:27;1.88;;;1.40;;
76051;SDS011;64751;48.708;9.710;2023-02-28T01:45:01;2.17;;;1.40;;
76051;SDS011;64751;48.708;9.710;2023-02-28T01:47:35;2.05;;;1.20;;
76051;SDS011;64751;48.708;9.710;2023-02-28T01:52:39;1.30;;;1.20;;
76051;SDS011;64751;48.708;9.710;2023-02-28T01:55:08;2.03;;;1.25;;
76051;SDS011;64751;48.708;9.710;2023-02-28T01:57:38;2.13;;;1.55;;
76051;SDS011;64751;48.708;9.710;2023-02-28T02:00:11;1.95;;;1.30;;
76051;SDS011;64751;48.708;9.710;2023-02-28T02:02:48;2.15;;;1.95;;
76051;SDS011;64751;48.708;9.710;2023-02-28T02:05:20;1.65;;;1.20;;
76051;SDS011;64751;48.708;9.710;2023-02-28T02:07:50;1.95;;;1.35;;
76051;SDS011;64751;48.708;9.710;2023-02-28T02:10:21;1.92;;;1.20;;
76051;SDS011;64751;48.708;9.710;2023-02-28T02:13:03;2.00;;;1.50;;
76051;SDS011;64751;48.708;9.710;2023-02-28T02:15:41;3.20;;;1.63;;
76051;SDS011;64751;48.708;9.710;2023-02-28T02:18:16;2.45;;;1.45;;
76051;SDS011;64751;48.708;9.710;2023-02-28T02:24:08;1.98;;;1.50;;
76051;SDS011;64751;48.708;9.710;2023-02-28T02:27:17;2.58;;;1.73;;
76051;SDS011;64751;48.708;9.710;2023-02-28T02:36:09;2.95;;;1.60;;
76051;SDS011;64751;48.708;9.710;2023-02-28T02:38:45;2.00;;;1.40;;
76051;SDS011;64751;48.708;9.710;2023-02-28T02:41:19;1.90;;;1.40;;
76051;SDS011;64751;48.708;9.710;2023-02-28T02:43:52;2.00;;;1.50;;
76051;SDS011;64751;48.708;9.710;2023-02-28T02:46:26;2.05;;;1.50;;
76051;SDS011;64751;48.708;9.710;2023-02-28T02:48:59;1.83;;;1.50;;
76051;SDS011;64751;48.708;9.710;2023-02-28T02:51:30;2.42;;;1.60;;
76051;SDS011;64751;48.708;9.710;2023-02-28T02:54:01;2.60;;;1.50;;
76051;SDS011;64751;48.708;9.710;2023-02-28T02:56:33;2.45;;;1.55;;
76051;SDS011;64751;48.708;9.710;2023-02-28T02:59:03;3.33;;;1.55;;
76051;SDS011;64751;48.708;9.710;2023-02-28T03:04:06;1.83;;;1.55;;
76051;SDS011;64751;48.708;9.710;2023-02-28T03:06:37;2.08;;;1.70;;
76051;SDS011;64751;48.708;9.710;2023-02-28T03:09:04;2.22;;;1.42;;
76051;SDS011;64751;48.708;9.710;2023-02-28T03:11:32;2.20;;;1.55;;
76051;SDS011;64751;48.708;9.710;2023-02-28T03:17:06;2.40;;;1.70;;
76051;SDS011;64751;48.708;9.710;2023-02-28T03:19:52;2.80;;;1.50;;
76051;SDS011;64751;48.708;9.710;2023-02-28T03:22:42;2.60;;;1.58;;
76051;SDS011;64751;48.708;9.710;2023-02-28T03:25:18;1.90;;;1.52;;
76051;SDS011;64751;48.708;9.710;2023-02-28T03:27:55;1.83;;;1.48;;
76051;SDS011;64751;48.708;9.710;2023-02-28T03:30:33;2.03;;;1.70;;
76051;SDS011;64751;48.708;9.710;2023-02-28T03:33:07;1.70;;;1.50;;
76051;SDS011;64751;48.708;9.710;2023-02-28T03:35:40;2.85;;;2.03;;
76051;SDS011;64751;48.708;9.710;2023-02-28T03:38:14;1.85;;;1.45;;
76051;SDS011;64751;48.708;9.710;2023-02-28T03:40:47;2.30;;;1.60;;
76051;SDS011;64751;48.708;9.710;2023-02-28T03:43:20;2.28;;;1.60;;
76051;SDS011;64751;48.708;9.710;2023-02-28T03:45:51;2.58;;;1.90;;
76051;SDS011;64751;48.708;9.710;2023-02-28T03:48:22;2.88;;;1.92;;
76051;SDS011;64751;48.708;9.710;2023-02-28T03:50:54;2.42;;;1.65;;
76051;SDS011;64751;48.708;9.710;2023-02-28T03:53:27;2.88;;;2.10;;
76051;SDS011;64751;48.708;9.710;2023-02-28T03:55:59;2.55;;;1.95;;
76051;SDS011;64751;48.708;9.710;2023-02-28T03:58:34;2.33;;;1.60;;
76051;SDS011;64751;48.708;9.710;2023-02-28T04:01:08;2.50;;;2.08;;
76051;SDS011;64751;48.708;9.710;2023-02-28T04:03:39;2.13;;;1.52;;
76051;SDS011;64751;48.708;9.710;2023-02-28T04:06:07;3.88;;;2.38;;
76051;SDS011;64751;48.708;9.710;2023-02-28T04:08:41;2.15;;;1.70;;
76051;SDS011;64751;48.708;9.710;2023-02-28T04:11:12;2.28;;;1.50;;
76051;SDS011;64751;48.708;9.710;2023-02-28T04:13:45;1.90;;;1.55;;
76051;SDS011;64751;48.708;9.710;2023-02-28T04:16:13;2.42;;;2.00;;
76051;SDS011;64751;48.708;9.710;2023-02-28T04:18:40;2.47;;;1.63;;
76051;SDS011;64751;48.708;9.710;2023-02-28T04:21:09;2.22;;;1.90;;
76051;SDS011;64751;48.708;9.710;2023-02-28T04:23:37;3.80;;;2.45;;
76051;SDS011;64751;48.708;9.710;2023-02-28T04:26:06;2.78;;;1.67;;
76051;SDS011;64751;48.708;9.710;2023-02-28T04:28:33;2.55;;;1.98;;
76051;SDS011;64751;48.708;9.710;2023-02-28T04:31:01;3.33;;;2.10;;
76051;SDS011;64751;48.708;9.710;2023-02-28T04:33:31;2.60;;;1.90;;
76051;SDS011;64751;48.708;9.710;2023-02-28T04:35:59;2.75;;;2.20;;
76051;SDS011;64751;48.708;9.710;2023-02-28T04:38:28;3.08;;;1.85;;
76051;SDS011;64751;48.708;9.710;2023-02-28T04:40:57;2.50;;;2.03;;
76051;SDS011;64751;48.708;9.710;2023-02-28T04:43:27;3.67;;;2.30;;
76051;SDS011;64751;48.708;9.710;2023-02-28T04:45:55;2.63;;;1.90;;
76051;SDS011;64751;48.708;9.710;2023-02-28T04:48:23;2.83;;;2.20;;
76051;SDS011;64751;48.708;9.710;2023-02-28T04:50:51;2.80;;;1.95;;
76051;SDS011;64751;48.708;9.710;2023-02-28T04:53:19;2.67;;;1.80;;
76051;SDS011;64751;48.708;9.710;2023-02-28T04:55:47;2.00;;;1.55;;
76051;SDS011;64751;48.708;9.710;2023-02-28T04:58:14;2.38;;;1.88;;
76051;SDS011;64751;48.708;9.710;2023-02-28T05:00:43;2.80;;;2.08;;
76051;SDS011;64751;48.708;9.710;2023-02-28T05:03:10;3.10;;;2.10;;
76051;SDS011;64751;48.708;9.710;2023-02-28T05:05:38;3.05;;;2.10;;
76051;SDS011;64751;48.708;9.710;2023-02-28T05:08:05;2.13;;;1.65;;
76051;SDS011;64751;48.708;9.710;2023-02-28T05:10:33;2.60;;;2.10;;
76051;SDS011;64751;48.708;9.710;2023-02-28T05:13:00;2.70;;;1.92;;
76051;SDS011;64751;48.708;9.710;2023-02-28T05:15:28;2.60;;;1.83;;
76051;SDS011;64751;48.708;9.710;2023-02-28T05:17:57;3.08;;;1.90;;
76051;SDS011;64751;48.708;9.710;2023-02-28T05:20:24;2.40;;;2.10;;
76051;SDS011;64751;48.708;9.710;2023-02-28T05:22:52;2.78;;;1.80;;
76051;SDS011;64751;48.708;9.710;2023-02-28T05:25:20;2.78;;;2.10;;
76051;SDS011;64751;48.708;9.710;2023-02-28T05:27:48;2.47;;;1.98;;
76051;SDS011;64751;48.708;9.710;2023-02-28T05:30:16;3.58;;;2.20;;
76051;SDS011;64751;48.708;9.710;2023-02-28T05:32:48;2.35;;;1.80;;
76051;SDS011;64751;48.708;9.710;2023-02-28T05:35:19;3.15;;;2.20;;
76051;SDS011;64751;48.708;9.710;2023-02-28T05:37:46;4.15;;;2.55;;
76051;SDS011;64751;48.708;9.710;2023-02-28T05:40:14;2.45;;;1.95;;
76051;SDS011;64751;48.708;9.710;2023-02-28T05:42:42;3.65;;;2.53;;
76051;SDS011;64751;48.708;9.710;2023-02-28T05:45:10;2.53;;;2.28;;
76051;SDS011;64751;48.708;9.710;2023-02-28T05:47:38;2.72;;;2.20;;
76051;SDS011;64751;48.708;9.710;2023-02-28T05:50:06;3.17;;;2.35;;
76051;SDS011;64751;48.708;9.710;2023-02-28T05:52:37;3.35;;;2.80;;
76051;SDS011;64751;48.708;9.710;2023-02-28T05:55:04;2.83;;;2.20;;
76051;SDS011;64751;48.708;9.710;2023-02-28T05:57:33;3.75;;;2.60;;
76051;SDS011;64751;48.708;9.710;2023-02-28T06:00:00;3.17;;;2.40;;
76051;SDS011;64751;48.708;9.710;2023-02-28T06:02:38;2.60;;;2.20;;
76051;SDS011;64751;48.708;9.710;2023-02-28T06:05:07;3.15;;;2.28;;
76051;SDS011;64751;48.708;9.710;2023-02-28T06:07:41;3.03;;;2.42;;
76051;SDS011;64751;48.708;9.710;2023-02-28T06:10:09;3.13;;;2.47;;
76051;SDS011;64751;48.708;9.710;2023-02-28T06:12:37;2.90;;;2.30;;
76051;SDS011;64751;48.708;9.710;2023-02-28T06:15:07;2.95;;;2.20;;
76051;SDS011;64751;48.708;9.710;2023-02-28T06:17:39;2.70;;;2.42;;
76051;SDS011;64751;48.708;9.710;2023-02-28T06:20:07;2.65;;;2.30;;
76051;SDS011;64751;48.708;9.710;2023-02-28T06:22:36;3.78;;;2.65;;
76051;SDS011;64751;48.708;9.710;2023-02-28T06:25:05;3.10;;;2.20;;
76051;SDS011;64751;48.708;9.710;2023-02-28T06:27:34;2.53;;;2.03;;
76051;SDS011;64751;48.708;9.710;2023-02-28T06:30:02;2.97;;;2.50;;
76051;SDS011;64751;48.708;9.710;2023-02-28T06:32:30;3.15;;;2.50;;
76051;SDS011;64751;48.708;9.710;2023-02-28T06:34:57;3.05;;;2.58;;
76051;SDS011;64751;48.708;9.710;2023-02-28T06:37:25;3.03;;;2.58;;
76051;SDS011;64751;48.708;9.710;2023-02-28T06:39:53;2.85;;;2.30;;
76051;SDS011;64751;48.708;9.710;2023-02-28T06:42:23;3.58;;;2.50;;
76051;SDS011;64751;48.708;9.710;2023-02-28T06:44:54;3.35;;;2.83;;
76051;SDS011;64751;48.708;9.710;2023-02-28T06:47:23;3.53;;;2.50;;
76051;SDS011;64751;48.708;9.710;2023-02-28T06:49:51;3.05;;;2.38;;
76051;SDS011;64751;48.708;9.710;2023-02-28T06:52:18;2.83;;;2.55;;
76051;SDS011;64751;48.708;9.710;2023-02-28T06:54:47;3.17;;;2.63;;
76051;SDS011;64751;48.708;9.710;2023-02-28T06:57:26;3.13;;;2.33;;
76051;SDS011;64751;48.708;9.710;2023-02-28T06:59:57;3.50;;;2.63;;
76051;SDS011;64751;48.708;9.710;2023-02-28T07:02:25;2.90;;;2.55;;
76051;SDS011;64751;48.708;9.710;2023-02-28T07:04:52;3.15;;;2.50;;
76051;SDS011;64751;48.708;9.710;2023-02-28T07:07:20;5.05;;;2.70;;
76051;SDS011;64751;48.708;9.710;2023-02-28T07:09:47;2.78;;;2.28;;
76051;SDS011;64751;48.708;9.710;2023-02-28T07:12:15;3.65;;;2.38;;
76051;SDS011;64751;48.708;9.710;2023-02-28T07:14:44;2.80;;;2.22;;
76051;SDS011;64751;48.708;9.710;2023-02-28T07:17:12;2.80;;;2.50;;
76051;SDS011;64751;48.708;9.710;2023-02-28T07:19:39;3.47;;;2.75;;
76051;SDS011;64751;48.708;9.710;2023-02-28T07:22:07;3.58;;;2.70;;
76051;SDS011;64751;48.708;9.710;2023-02-28T07:24:34;3.47;;;2.28;;
76051;SDS011;64751;48.708;9.710;2023-02-28T07:27:02;3.22;;;2.47;;
76051;SDS011;64751;48.708;9.710;2023-02-28T07:29:29;3.05;;;2.67;;
76051;SDS011;64751;48.708;9.710;2023-02-28T07:31:59;4.90;;;2.72;;
76051;SDS011;64751;48.708;9.710;2023-02-28T07:34:26;4.57;;;3.13;;
76051;SDS011;64751;48.708;9.710;2023-02-28T07:36:54;3.58;;;2.80;;
76051;SDS011;64751;48.708;9.710;2023-02-28T07:39:22;4.07;;;2.80;;
76051;SDS011;64751;48.708;9.710;2023-02-28T07:41:49;3.28;;;2.60;;
76051;SDS011;64751;48.708;9.710;2023-02-28T07:44:17;3.13;;;2.67;;
76051;SDS011;64751;48.708;9.710;2023-02-28T07:46:44;3.17;;;2.45;;
76051;SDS011;64751;48.708;9.710;2023-02-28T07:49:13;2.70;;;2.30;;
76051;SDS011;64751;48.708;9.710;2023-02-28T07:51:41;3.78;;;2.78;;
76051;SDS011;64751;48.708;9.710;2023-02-28T07:54:08;3.15;;;2.75;;
76051;SDS011;64751;48.708;9.710;2023-02-28T07:56:35;3.55;;;2.90;;
76051;SDS011;64751;48.708;9.710;2023-02-28T07:59:03;6.70;;;2.85;;
76051;SDS011;64751;48.708;9.710;2023-02-28T08:01:30;3.20;;;2.30;;
76051;SDS011;64751;48.708;9.710;2023-02-28T08:03:58;4.38;;;3.03;;
76051;SDS011;64751;48.708;9.710;2023-02-28T08:06:27;3.38;;;2.33;;
76051;SDS011;64751;48.708;9.710;2023-02-28T08:08:55;3.00;;;2.70;;
76051;SDS011;64751;48.708;9.710;2023-02-28T08:11:23;3.42;;;2.63;;
76051;SDS011;64751;48.708;9.710;2023-02-28T08:13:51;3.38;;;2.78;;
76051;SDS011;64751;48.708;9.710;2023-02-28T08:16:18;3.30;;;2.70;;
76051;SDS011;64751;48.708;9.710;2023-02-28T08:18:48;3.90;;;2.80;;
76051;SDS011;64751;48.708;9.710;2023-02-28T08:21:16;3.47;;;2.60;;
76051;SDS011;64751;48.708;9.710;2023-02-28T08:23:47;4.88;;;3.15;;
76051;SDS011;64751;48.708;9.710;2023-02-28T08:26:15;4.68;;;2.97;;
76051;SDS011;64751;48.708;9.710;2023-02-28T08:28:43;3.85;;;3.00;;
76051;SDS011;64751;48.708;9.710;2023-02-28T08:31:11;3.33;;;2.92;;
76051;SDS011;64751;48.708;9.710;2023-02-28T08:33:40;4.35;;;3.10;;
76051;SDS011;64751;48.708;9.710;2023-02-28T08:36:10;3.63;;;2.60;;
76051;SDS011;64751;48.708;9.710;2023-02-28T08:38:39;4.05;;;2.80;;
76051;SDS011;64751;48.708;9.710;2023-02-28T08:41:09;4.00;;;3.47;;
76051;SDS011;64751;48.708;9.710;2023-02-28T08:43:39;3.67;;;2.60;;
76051;SDS011;64751;48.708;9.710;2023-02-28T08:46:07;4.15;;;3.10;;
76051;SDS011;64751;48.708;9.710;2023-02-28T08:48:35;4.07;;;3.05;;
76051;SDS011;64751;48.708;9.710;2023-02-28T08:51:05;4.22;;;3.22;;
76051;SDS011;64751;48.708;9.710;2023-02-28T08:53:35;3.63;;;2.72;;
76051;SDS011;64751;48.708;9.710;2023-02-28T08:56:03;5.60;;;2.97;;
76051;SDS011;64751;48.708;9.710;2023-02-28T08:58:34;3.75;;;3.35;;
76051;SDS011;64751;48.708;9.710;2023-02-28T09:01:07;3.47;;;2.72;;
76051;SDS011;64751;48.708;9.710;2023-02-28T09:03:36;3.20;;;2.70;;
76051;SDS011;64751;48.708;9.710;2023-02-28T09:06:04;3.42;;;2.60;;
76051;SDS011;64751;48.708;9.710;2023-02-28T09:08:31;4.43;;;3.28;;
76051;SDS011;64751;48.708;9.710;2023-02-28T09:10:59;4.05;;;2.92;;
76051;SDS011;64751;48.708;9.710;2023-02-28T09:13:27;3.75;;;3.05;;
76051;SDS011;64751;48.708;9.710;2023-02-28T09:15:58;4.15;;;3.13;;
76051;SDS011;64751;48.708;9.710;2023-02-28T09:18:26;3.97;;;2.92;;
76051;SDS011;64751;48.708;9.710;2023-02-28T09:20:54;4.15;;;3.30;;
76051;SDS011;64751;48.708;9.710;2023-02-28T09:23:22;3.92;;;2.95;;
76051;SDS011;64751;48.708;9.710;2023-02-28T09:25:51;3.45;;;2.72;;
76051;SDS011;64751;48.708;9.710;2023-02-28T09:28:20;3.53;;;2.67;;
76051;SDS011;64751;48.708;9.710;2023-02-28T09:30:50;4.43;;;3.10;;
76051;SDS011;64751;48.708;9.710;2023-02-28T09:33:20;3.78;;;2.78;;
76051;SDS011;64751;48.708;9.710;2023-02-28T09:35:49;3.70;;;3.25;;
76051;SDS011;64751;48.708;9.710;2023-02-28T09:38:17;3.80;;;2.60;;
76051;SDS011;64751;48.708;9.710;2023-02-28T09:40:47;3.75;;;2.95;;
76051;SDS011;64751;48.708;9.710;2023-02-28T09:43:17;3.72;;;3.25;;
76051;SDS011;64751;48.708;9.710;2023-02-28T09:45:50;3.55;;;3.03;;
76051;SDS011;64751;48.708;9.710;2023-02-28T09:48:27;3.63;;;3.05;;
76051;SDS011;64751;48.708;9.710;2023-02-28T09:51:02;4.05;;;2.95;;
76051;SDS011;64751;48.708;9.710;2023-02-28T09:53:33;3.78;;;3.10;;
76051;SDS011;64751;48.708;9.710;2023-02-28T09:58:36;3.58;;;2.90;;
76051;SDS011;64751;48.708;9.710;2023-02-28T10:01:09;3.85;;;3.22;;
76051;SDS011;64751;48.708;9.710;2023-02-28T10:03:48;4.13;;;3.40;;
76051;SDS011;64751;48.708;9.710;2023-02-28T10:06:26;3.83;;;3.38;;
76051;SDS011;64751;48.708;9.710;2023-02-28T10:09:00;3.85;;;3.08;;
76051;SDS011;64751;48.708;9.710;2023-02-28T10:11:32;3.40;;;2.90;;
76051;SDS011;64751;48.708;9.710;2023-02-28T10:14:02;3.75;;;2.67;;
76051;SDS011;64751;48.708;9.710;2023-02-28T10:16:38;3.75;;;2.90;;
76051;SDS011;64751;48.708;9.710;2023-02-28T10:19:14;3.38;;;2.85;;
76051;SDS011;64751;48.708;9.710;2023-02-28T10:21:47;3.42;;;3.10;;
76051;SDS011;64751;48.708;9.710;2023-02-28T10:24:23;3.35;;;2.83;;
76051;SDS011;64751;48.708;9.710;2023-02-28T10:26:58;4.28;;;3.40;;
76051;SDS011;64751;48.708;9.710;2023-02-28T10:29:28;4.57;;;3.03;;
76051;SDS011;64751;48.708;9.710;2023-02-28T10:32:00;3.42;;;2.92;;
76051;SDS011;64751;48.708;9.710;2023-02-28T10:34:31;3.78;;;2.80;;
76051;SDS011;64751;48.708;9.710;2023-02-28T10:36:59;3.47;;;2.90;;
76051;SDS011;64751;48.708;9.710;2023-02-28T10:39:34;3.33;;;2.90;;
76051;SDS011;64751;48.708;9.710;2023-02-28T10:42:02;3.75;;;3.17;;
76051;SDS011;64751;48.708;9.710;2023-02-28T10:44:31;3.15;;;2.45;;
76051;SDS011;64751;48.708;9.710;2023-02-28T10:46:58;4.10;;;3.40;;
76051;SDS011;64751;48.708;9.710;2023-02-28T10:49:27;4.68;;;3.35;;
76051;SDS011;64751;48.708;9.710;2023-02-28T10:51:57;4.07;;;3.22;;
76051;SDS011;64751;48.708;9.710;2023-02-28T10:54:27;3.25;;;2.67;;
76051;SDS011;64751;48.708;9.710;2023-02-28T10:57:08;3.65;;;2.85;;
76051;SDS011;64751;48.708;9.710;2023-02-28T10:59:43;3.03;;;2.72;;
76051;SDS011;64751;48.708;9.710;2023-02-28T11:02:29;3.53;;;2.92;;
76051;SDS011;64751;48.708;9.710;2023-02-28T11:04:58;4.65;;;3.40;;
76051;SDS011;64751;48.708;9.710;2023-02-28T11:07:27;4.45;;;2.92;;
76051;SDS011;64751;48.708;9.710;2023-02-28T11:09:56;3.58;;;2.97;;
76051;SDS011;64751;48.708;9.710;2023-02-28T11:12:25;3.75;;;2.70;;
76051;SDS011;64751;48.708;9.710;2023-02-28T11:14:56;3.65;;;3.17;;
76051;SDS011;64751;48.708;9.710;2023-02-28T11:17:26;3.95;;;3.28;;
76051;SDS011;64751;48.708;9.710;2023-02-28T11:19:57;3.83;;;3.08;;
76051;SDS011;64751;48.708;9.710;2023-02-28T11:22:31;3.35;;;3.05;;
76051;SDS011;64751;48.708;9.710;2023-02-28T11:25:02;3.33;;;3.03;;
76051;SDS011;64751;48.708;9.710;2023-02-28T11:30:26;3.55;;;2.97;;
76051;SDS011;64751;48.708;9.710;2023-02-28T11:32:56;4.40;;;3.10;;
76051;SDS011;64751;48.708;9.710;2023-02-28T11:35:24;3.40;;;2.83;;
76051;SDS011;64751;48.708;9.710;2023-02-28T11:37:57;3.97;;;3.40;;
76051;SDS011;64751;48.708;9.710;2023-02-28T11:40:28;3.67;;;3.00;;
76051;SDS011;64751;48.708;9.710;2023-02-28T11:43:03;3.92;;;3.03;;
76051;SDS011;64751;48.708;9.710;2023-02-28T11:45:43;3.95;;;2.85;;
76051;SDS011;64751;48.708;9.710;2023-02-28T11:48:20;3.83;;;3.08;;
76051;SDS011;64751;48.708;9.710;2023-02-28T11:50:52;3.70;;;3.00;;
76051;SDS011;64751;48.708;9.710;2023-02-28T11:56:33;3.35;;;2.83;;
76051;SDS011;64751;48.708;9.710;2023-02-28T11:59:10;3.75;;;2.95;;
76051;SDS011;64751;48.708;9.710;2023-02-28T12:01:59;4.72;;;3.00;;
76051;SDS011;64751;48.708;9.710;2023-02-28T12:04:49;3.85;;;3.40;;
76051;SDS011;64751;48.708;9.710;2023-02-28T12:07:28;3.72;;;2.75;;
76051;SDS011;64751;48.708;9.710;2023-02-28T12:10:06;3.45;;;2.75;;
76051;SDS011;64751;48.708;9.710;2023-02-28T12:12:48;3.63;;;2.78;;
76051;SDS011;64751;48.708;9.710;2023-02-28T12:15:28;3.17;;;2.72;;
76051;SDS011;64751;48.708;9.710;2023-02-28T12:18:10;3.55;;;2.95;;
76051;SDS011;64751;48.708;9.710;2023-02-28T12:20:52;3.05;;;2.60;;
76051;SDS011;64751;48.708;9.710;2023-02-28T12:23:27;4.30;;;3.08;;
76051;SDS011;64751;48.708;9.710;2023-02-28T12:26:16;3.67;;;3.08;;
76051;SDS011;64751;48.708;9.710;2023-02-28T12:28:52;3.47;;;2.88;;
76051;SDS011;64751;48.708;9.710;2023-02-28T12:31:26;3.33;;;2.78;;
76051;SDS011;64751;48.708;9.710;2023-02-28T12:33:57;3.50;;;2.72;;
76051;SDS011;64751;48.708;9.710;2023-02-28T12:36:28;4.45;;;3.03;;
76051;SDS011;64751;48.708;9.710;2023-02-28T12:38:58;3.75;;;2.72;;
76051;SDS011;64751;48.708;9.710;2023-02-28T12:41:33;3.60;;;2.58;;
76051;SDS011;64751;48.708;9.710;2023-02-28T12:44:07;3.60;;;2.80;;
76051;SDS011;64751;48.708;9.710;2023-02-28T12:46:41;4.63;;;3.17;;
76051;SDS011;64751;48.708;9.710;2023-02-28T12:49:12;3.55;;;3.08;;
76051;SDS011;64751;48.708;9.710;2023-02-28T12:51:43;3.67;;;2.63;;
76051;SDS011;64751;48.708;9.710;2023-02-28T12:54:14;2.95;;;2.25;;
76051;SDS011;64751;48.708;9.710;2023-02-28T12:56:49;4.60;;;3.08;;
76051;SDS011;64751;48.708;9.710;2023-02-28T12:59:27;2.90;;;2.50;;
76051;SDS011;64751;48.708;9.710;2023-02-28T13:02:02;3.47;;;2.70;;
76051;SDS011;64751;48.708;9.710;2023-02-28T13:04:53;3.33;;;2.60;;
76051;SDS011;64751;48.708;9.710;2023-02-28T13:10:41;3.42;;;2.70;;
76051;SDS011;64751;48.708;9.710;2023-02-28T13:13:13;3.40;;;2.70;;
76051;SDS011;64751;48.708;9.710;2023-02-28T13:15:58;3.20;;;2.85;;
76051;SDS011;64751;48.708;9.710;2023-02-28T13:18:28;3.42;;;2.83;;
76051;SDS011;64751;48.708;9.710;2023-02-28T13:20:58;3.28;;;2.70;;
76051;SDS011;64751;48.708;9.710;2023-02-28T13:29:40;3.00;;;2.45;;
76051;SDS011;64751;48.708;9.710;2023-02-28T13:35:15;3.42;;;2.70;;
76051;SDS011;64751;48.708;9.710;2023-02-28T13:38:16;3.20;;;2.78;;
76051;SDS011;64751;48.708;9.710;2023-02-28T13:40:49;3.50;;;2.50;;
76051;SDS011;64751;48.708;9.710;2023-02-28T13:43:17;3.05;;;2.55;;
76051;SDS011;64751;48.708;9.710;2023-02-28T13:48:40;3.25;;;2.70;;
76051;SDS011;64751;48.708;9.710;2023-02-28T13:57:09;3.28;;;2.58;;
76051;SDS011;64751;48.708;9.710;2023-02-28T13:59:50;3.22;;;2.70;;
76051;SDS011;64751;48.708;9.710;2023-02-28T14:02:42;3.20;;;2.67;;
76051;SDS011;64751;48.708;9.710;2023-02-28T14:05:28;3.47;;;2.60;;
76051;SDS011;64751;48.708;9.710;2023-02-28T14:08:00;3.47;;;2.40;;
76051;SDS011;64751;48.708;9.710;2023-02-28T14:10:35;3.38;;;2.90;;
76051;SDS011;64751;48.708;9.710;2023-02-28T14:13:13;2.95;;;2.45;;
76051;SDS011;64751;48.708;9.710;2023-02-28T14:16:03;3.22;;;2.50;;
76051;SDS011;64751;48.708;9.710;2023-02-28T14:18:33;3.30;;;2.60;;
76051;SDS011;64751;48.708;9.710;2023-02-28T14:21:10;3.30;;;2.67;;
76051;SDS011;64751;48.708;9.710;2023-02-28T14:29:56;3.28;;;2.72;;
76051;SDS011;64751;48.708;9.710;2023-02-28T14:32:33;3.22;;;2.88;;
76051;SDS011;64751;48.708;9.710;2023-02-28T14:35:09;3.70;;;2.72;;
76051;SDS011;64751;48.708;9.710;2023-02-28T14:37:47;3.58;;;3.10;;
76051;SDS011;64751;48.708;9.710;2023-02-28T14:40:16;3.80;;;3.03;;
76051;SDS011;64751;48.708;9.710;2023-02-28T14:42:47;3.80;;;3.08;;
76051;SDS011;64751;48.708;9.710;2023-02-28T14:45:21;4.93;;;2.80;;
76051;SDS011;64751;48.708;9.710;2023-02-28T14:47:49;3.03;;;2.45;;
76051;SDS011;64751;48.708;9.710;2023-02-28T14:50:19;3.33;;;2.60;;
76051;SDS011;64751;48.708;9.710;2023-02-28T14:52:50;3.15;;;2.83;;
76051;SDS011;64751;48.708;9.710;2023-02-28T14:55:19;3.35;;;3.00;;
76051;SDS011;64751;48.708;9.710;2023-02-28T14:57:54;3.65;;;3.05;;
76051;SDS011;64751;48.708;9.710;2023-02-28T15:00:23;3.67;;;2.97;;
76051;SDS011;64751;48.708;9.710;2023-02-28T15:02:52;3.97;;;3.42;;
76051;SDS011;64751;48.708;9.710;2023-02-28T15:05:24;3.38;;;2.95;;
76051;SDS011;64751;48.708;9.710;2023-02-28T15:08:03;3.35;;;2.95;;
76051;SDS011;64751;48.708;9.710;2023-02-28T15:10:32;3.20;;;2.90;;
76051;SDS011;64751;48.708;9.710;2023-02-28T15:13:01;3.50;;;3.13;;
76051;SDS011;64751;48.708;9.710;2023-02-28T15:15:35;3.38;;;2.80;;
76051;SDS011;64751;48.708;9.710;2023-02-28T15:18:12;4.05;;;2.70;;
76051;SDS011;64751;48.708;9.710;2023-02-28T15:20:47;3.42;;;2.67;;
76051;SDS011;64751;48.708;9.710;2023-02-28T15:23:17;4.15;;;3.35;;
76051;SDS011;64751;48.708;9.710;2023-02-28T15:25:45;4.03;;;3.28;;
76051;SDS011;64751;48.708;9.710;2023-02-28T15:28:14;4.18;;;3.53;;
76051;SDS011;64751;48.708;9.710;2023-02-28T15:30:52;3.83;;;3.20;;
76051;SDS011;64751;48.708;9.710;2023-02-28T15:33:22;4.03;;;3.30;;
76051;SDS011;64751;48.708;9.710;2023-02-28T15:35:51;3.70;;;3.17;;
76051;SDS011;64751;48.708;9.710;2023-02-28T15:38:32;3.17;;;2.75;;
76051;SDS011;64751;48.708;9.710;2023-02-28T15:41:03;3.70;;;3.15;;
76051;SDS011;64751;48.708;9.710;2023-02-28T15:43:34;4.03;;;3.40;;
76051;SDS011;64751;48.708;9.710;2023-02-28T15:46:03;3.67;;;2.90;;
76051;SDS011;64751;48.708;9.710;2023-02-28T15:48:34;4.32;;;3.20;;
76051;SDS011;64751;48.708;9.710;2023-02-28T15:51:06;3.97;;;2.97;;
76051;SDS011;64751;48.708;9.710;2023-02-28T15:53:39;3.83;;;3.10;;
76051;SDS011;64751;48.708;9.710;2023-02-28T15:56:16;3.45;;;3.00;;
76051;SDS011;64751;48.708;9.710;2023-02-28T15:58:50;3.70;;;3.25;;
76051;SDS011;64751;48.708;9.710;2023-02-28T16:01:23;3.53;;;2.90;;
76051;SDS011;64751;48.708;9.710;2023-02-28T16:03:54;3.22;;;2.92;;
76051;SDS011;64751;48.708;9.710;2023-02-28T16:06:32;3.58;;;2.97;;